Time;durP1;ratioP1;P1;durP2;ratioP2;P2;SDS_P1;SDS_P2;PMS_P1;PMS_P2;Temp;Humidity;BMP_temperature;BMP_pressure;BME280_temperature;BME280_humidity;BME280_pressure;Samples;Min_cycle;Max_cycle;Signal;HPM_P1;HPM_P2
2023/03/08 00:01:02;;;;;;;5.53;1.60;;;9.80;99.90;;;9.10;100.00;99110.00;4153032;28;20049;-83
2023/03/08 00:03:03;;;;;;;2.60;1.00;;;9.80;99.90;;;9.03;100.00;99104.66;4153775;28;20022;-85
2023/03/08 00:05:05;;;;;;;3.47;1.10;;;9.80;99.90;;;9.09;100.00;99103.09;4153955;28;20165;-82
2023/03/08 00:07:06;;;;;;;5.80;1.20;;;9.80;99.90;;;9.03;100.00;99098.59;4165531;28;20512;-80
2023/03/08 00:09:08;;;;;;;5.90;1.70;;;9.80;99.90;;;9.06;100.00;99090.31;4153527;28;20037;-81
2023/03/08 00:11:12;;;;;;;3.42;1.40;;;9.80;99.90;;;9.06;100.00;99101.66;4152726;28;20037;-80
2023/03/08 00:13:12;;;;;;;1.60;0.90;;;9.80;99.90;;;9.05;100.00;99089.50;4152898;28;20054;-82
2023/03/08 00:15:14;;;;;;;4.53;1.20;;;9.80;99.90;;;9.07;100.00;99084.06;4157788;28;20636;-83
2023/03/08 00:17:16;;;;;;;1.83;1.15;;;9.90;99.90;;;9.19;100.00;99082.59;4136824;28;20389;-83
2023/03/08 00:19:17;;;;;;;3.03;0.90;;;9.80;99.90;;;9.16;100.00;99061.91;4153052;28;20109;-83
2023/03/08 00:21:18;;;;;;;3.13;0.90;;;9.90;99.90;;;9.09;100.00;99055.75;4151177;28;20026;-83
2023/03/08 00:23:19;;;;;;;4.95;1.50;;;9.90;99.90;;;9.13;100.00;99051.75;4153285;28;20402;-83
2023/03/08 00:25:20;;;;;;;6.07;1.60;;;9.90;99.90;;;9.09;100.00;99029.47;4169512;28;20026;-83
2023/03/08 00:27:21;;;;;;;3.80;1.00;;;9.90;99.90;;;9.06;100.00;99022.75;4148743;28;20034;-83
2023/03/08 00:29:22;;;;;;;2.50;1.85;;;9.90;99.90;;;9.10;100.00;99026.66;4150448;28;20100;-83
2023/03/08 00:31:22;;;;;;;2.45;1.40;;;9.90;99.90;;;9.05;100.00;99021.13;4141420;28;20034;-83
2023/03/08 00:33:24;;;;;;;3.15;1.23;;;9.90;99.90;;;9.14;100.00;99020.00;4168716;28;20052;-83
2023/03/08 00:35:25;;;;;;;3.40;0.80;;;9.90;99.90;;;9.12;100.00;99018.56;4153086;28;20068;-82
2023/03/08 00:37:25;;;;;;;2.40;0.80;;;9.90;99.90;;;9.14;100.00;99016.56;4151090;28;20525;-82
2023/03/08 00:39:26;;;;;;;2.25;0.70;;;9.90;99.90;;;9.15;100.00;99002.41;4152839;28;20104;-83
2023/03/08 00:41:27;;;;;;;1.45;0.60;;;9.90;99.90;;;9.12;100.00;99008.03;4153531;28;20106;-82
2023/03/08 00:43:28;;;;;;;1.25;0.50;;;9.90;99.90;;;9.17;100.00;98997.78;4154031;28;20030;-82
2023/03/08 00:45:29;;;;;;;1.05;0.40;;;9.90;99.90;;;9.24;100.00;98996.00;4152782;28;20054;-82
2023/03/08 00:47:30;;;;;;;1.08;0.60;;;9.90;99.90;;;9.25;100.00;99000.28;4153678;28;21369;-82
2023/03/08 00:49:30;;;;;;;1.42;0.60;;;10.00;99.90;;;9.32;100.00;99009.03;4152714;28;20026;-82
2023/03/08 00:51:31;;;;;;;1.45;0.20;;;10.00;99.90;;;9.36;100.00;98994.50;4154016;28;20030;-82
2023/03/08 00:53:33;;;;;;;1.58;0.40;;;10.00;99.90;;;9.39;100.00;98992.28;4152665;28;20026;-82
2023/03/08 00:55:34;;;;;;;0.75;0.40;;;10.10;99.90;;;9.43;100.00;99000.63;4152462;28;20485;-82
2023/03/08 00:57:35;;;;;;;0.65;0.32;;;10.10;99.90;;;9.46;100.00;98997.63;4152457;28;20511;-82
2023/03/08 00:59:36;;;;;;;1.25;0.40;;;10.10;99.90;;;9.52;100.00;98996.84;4136453;28;20034;-82
2023/03/08 01:01:37;;;;;;;1.10;0.40;;;10.20;99.90;;;9.54;100.00;98986.94;4152232;28;20101;-82
2023/03/08 01:03:37;;;;;;;3.15;0.57;;;10.30;99.90;;;9.66;100.00;98990.66;4151627;28;20022;-82
2023/03/08 01:05:41;;;;;;;4.40;0.40;;;10.30;99.90;;;9.75;100.00;98989.50;4152431;28;20022;-81
2023/03/08 01:07:42;;;;;;;2.65;0.52;;;10.40;99.90;;;9.99;100.00;98999.56;4136427;28;20030;-82
2023/03/08 01:09:43;;;;;;;2.63;0.52;;;10.50;99.90;;;9.94;100.00;98996.72;4164679;28;20022;-81
2023/03/08 01:11:44;;;;;;;3.72;0.57;;;10.60;99.90;;;10.09;100.00;98983.41;4153507;28;20033;-81
2023/03/08 01:13:45;;;;;;;5.22;0.60;;;10.70;99.90;;;10.11;100.00;98975.31;4152098;28;20073;-81
2023/03/08 01:15:46;;;;;;;4.68;0.68;;;10.80;99.90;;;10.35;100.00;98993.28;4153464;28;20029;-81
2023/03/08 01:17:47;;;;;;;8.48;0.98;;;10.90;99.90;;;10.29;100.00;98994.06;4151847;28;20080;-81
2023/03/08 01:19:48;;;;;;;4.70;0.88;;;10.90;99.90;;;10.25;100.00;98996.28;4168578;28;20424;-81
2023/03/08 01:21:49;;;;;;;6.32;1.02;;;10.90;99.90;;;10.36;100.00;98998.34;4152316;28;20096;-81
2023/03/08 01:23:50;;;;;;;3.03;0.85;;;11.00;99.90;;;10.45;100.00;99004.28;4153431;28;20030;-81
2023/03/08 01:26:04;;;;;;;7.20;1.05;;;11.10;99.90;;;10.46;100.00;98995.34;4151828;28;20022;-81
2023/03/08 01:28:05;;;;;;;6.90;0.68;;;11.10;99.90;;;10.58;100.00;99004.31;4152169;28;20026;-81
2023/03/08 01:30:06;;;;;;;3.35;0.80;;;11.20;99.90;;;10.57;100.00;98994.78;4153597;28;20026;-81
2023/03/08 01:32:08;;;;;;;3.42;0.50;;;11.20;99.90;;;10.53;100.00;98985.63;4151223;28;20052;-81
2023/03/08 01:34:09;;;;;;;3.28;0.55;;;11.20;99.90;;;10.59;100.00;98986.66;4135907;28;20034;-81
2023/03/08 01:36:16;;;;;;;4.18;0.50;;;11.30;99.90;;;10.72;100.00;99003.31;4140193;28;20029;-81
2023/03/08 01:38:17;;;;;;;3.65;0.50;;;11.30;99.90;;;10.58;100.00;98980.56;4151870;28;20104;-81
2023/03/08 01:40:17;;;;;;;5.15;0.88;;;11.30;99.90;;;10.60;100.00;98983.84;4168564;28;20033;-81
2023/03/08 01:42:18;;;;;;;3.85;1.13;;;11.30;99.90;;;10.63;100.00;99004.53;4135505;28;20026;-81
2023/03/08 01:44:21;;;;;;;4.93;1.10;;;11.30;99.90;;;10.71;100.00;98995.63;4153060;28;20037;-81
2023/03/08 01:46:34;;;;;;;1.83;0.65;;;11.30;99.90;;;10.60;100.00;98965.38;4151638;28;20026;-81
2023/03/08 01:49:03;;;;;;;2.13;0.88;;;11.30;99.90;;;10.77;100.00;98957.91;4151730;28;20040;-81
2023/03/08 01:51:08;;;;;;;1.77;0.50;;;11.40;99.90;;;10.80;100.00;98973.31;4151780;28;20113;-81
2023/03/08 01:53:09;;;;;;;2.28;0.47;;;11.40;99.90;;;10.78;100.00;98976.16;4142712;28;20054;-81
2023/03/08 01:55:12;;;;;;;3.63;0.88;;;11.40;99.90;;;10.95;100.00;98981.88;4131809;28;20069;-81
2023/03/08 01:57:38;;;;;;;3.22;1.17;;;11.50;99.90;;;10.86;100.00;98954.88;4152582;28;20061;-81
2023/03/08 01:59:40;;;;;;;3.88;0.55;;;11.50;99.90;;;10.93;100.00;98981.28;4151972;28;20044;-81
2023/03/08 02:01:41;;;;;;;6.63;0.50;;;11.50;99.90;;;10.89;100.00;98972.13;4151442;28;20022;-81
2023/03/08 02:03:44;;;;;;;3.40;0.70;;;11.60;99.90;;;10.81;100.00;98943.31;4153077;28;20029;-81
2023/03/08 02:05:47;;;;;;;1.30;0.70;;;11.60;99.90;;;10.92;100.00;98961.16;4151713;28;20571;-81
2023/03/08 02:07:48;;;;;;;2.05;0.68;;;11.60;99.90;;;10.92;100.00;98962.00;4152777;28;20030;-81
2023/03/08 02:09:50;;;;;;;2.92;0.73;;;11.60;99.90;;;10.90;100.00;98979.03;4135712;28;20025;-80
2023/03/08 02:11:51;;;;;;;6.18;1.50;;;11.60;99.90;;;10.94;100.00;98969.69;4151454;28;20037;-80
2023/03/08 02:13:54;;;;;;;5.07;1.00;;;11.60;99.90;;;10.95;100.00;98964.22;4151327;28;20050;-80
2023/03/08 02:15:57;;;;;;;6.07;1.27;;;11.60;99.90;;;10.96;100.00;98962.41;4151456;28;20110;-81
2023/03/08 02:17:58;;;;;;;7.13;0.88;;;11.60;99.90;;;10.94;100.00;98970.50;4151065;28;20022;-81
2023/03/08 02:20:31;;;;;;;7.45;1.60;;;11.60;99.90;;;11.00;100.00;98979.44;4152628;28;20029;-80
2023/03/08 02:22:39;;;;;;;9.43;1.85;;;11.60;99.90;;;10.97;100.00;98959.56;4151365;28;20051;-81
2023/03/08 02:24:40;;;;;;;4.78;1.38;;;11.70;99.90;;;10.96;100.00;98950.00;4120313;28;20114;-80
2023/03/08 02:26:41;;;;;;;5.95;1.10;;;11.60;99.90;;;11.01;100.00;98975.78;4155930;28;20026;-80
2023/03/08 02:28:43;;;;;;;5.57;1.02;;;11.70;99.90;;;10.99;100.00;98968.06;4152746;28;20026;-80
2023/03/08 02:30:44;;;;;;;6.78;1.00;;;11.70;99.90;;;11.00;100.00;98974.97;4151323;28;20034;-80
2023/03/08 02:32:44;;;;;;;8.70;1.00;;;11.70;99.90;;;11.04;100.00;98970.94;4167179;28;20029;-80
2023/03/08 02:34:45;;;;;;;6.60;0.90;;;11.70;99.90;;;11.01;100.00;98981.88;4152534;28;20437;-80
2023/03/08 02:36:46;;;;;;;5.45;0.80;;;11.70;99.90;;;11.10;100.00;98978.03;4151240;28;20037;-80
2023/03/08 02:38:47;;;;;;;9.45;1.25;;;11.70;99.90;;;10.93;100.00;98991.81;4151142;28;20018;-80
2023/03/08 02:40:51;;;;;;;10.85;2.10;;;11.70;99.90;;;11.01;100.00;99000.34;4167442;28;20025;-80
2023/03/08 02:42:54;;;;;;;6.03;1.50;;;11.70;99.90;;;11.06;100.00;99000.56;4151509;28;20029;-80
2023/03/08 02:44:55;;;;;;;8.80;1.77;;;11.70;99.90;;;11.06;100.00;99003.19;4152003;28;20029;-81
2023/03/08 02:46:56;;;;;;;15.52;2.80;;;11.70;99.90;;;11.00;100.00;98998.72;4152094;28;20026;-81
2023/03/08 02:48:57;;;;;;;14.70;3.03;;;11.70;99.90;;;11.02;100.00;99001.97;4151224;28;20030;-81
2023/03/08 02:50:58;;;;;;;18.98;3.00;;;11.70;99.90;;;10.95;100.00;99002.97;4150986;28;20026;-81
2023/03/08 02:52:59;;;;;;;11.38;1.90;;;11.70;99.90;;;11.00;100.00;99000.53;4144473;28;20022;-80
2023/03/08 02:54:59;;;;;;;12.77;2.60;;;11.60;99.90;;;11.01;100.00;98991.63;4147672;28;20398;-81
2023/03/08 02:57:00;;;;;;;14.82;2.80;;;11.70;99.90;;;10.94;100.00;98993.44;4155483;28;20068;-81
2023/03/08 02:59:02;;;;;;;18.10;3.35;;;11.70;99.90;;;11.04;100.00;98992.03;4154633;28;20084;-81
2023/03/08 03:01:03;;;;;;;15.45;3.20;;;11.70;99.90;;;10.97;100.00;98979.84;4170834;28;20029;-81
2023/03/08 03:03:04;;;;;;;18.08;3.03;;;11.70;99.90;;;10.96;100.00;99000.13;4154284;28;20386;-81
2023/03/08 03:05:09;;;;;;;16.40;4.00;;;11.60;99.90;;;10.98;100.00;98999.94;4155624;28;20036;-81
2023/03/08 03:07:10;;;;;;;18.92;3.20;;;11.70;99.90;;;10.92;100.00;98992.81;4154213;28;20034;-81
2023/03/08 03:09:12;;;;;;;17.52;3.90;;;11.60;99.90;;;11.01;100.00;98986.34;4170783;28;20574;-80
2023/03/08 03:11:21;;;;;;;20.80;4.13;;;11.70;99.90;;;10.96;100.00;98988.78;4154359;28;20100;-80
2023/03/08 03:13:22;;;;;;;21.92;3.42;;;11.70;99.90;;;10.96;100.00;98984.28;4154078;28;20497;-81
2023/03/08 03:15:23;;;;;;;18.58;3.15;;;11.70;99.90;;;10.93;100.00;98991.81;4154520;28;20073;-80
2023/03/08 03:17:24;;;;;;;20.98;3.60;;;11.60;99.90;;;10.96;100.00;98988.78;4170241;28;20079;-81
2023/03/08 03:19:24;;;;;;;17.23;3.75;;;11.60;99.90;;;10.93;100.00;98979.44;4155329;28;20041;-80
2023/03/08 03:21:25;;;;;;;18.55;3.35;;;11.60;99.90;;;10.84;100.00;98991.19;4154084;28;20026;-80
2023/03/08 03:23:28;;;;;;;16.45;2.42;;;11.60;99.90;;;10.90;100.00;99006.19;4170566;28;20033;-81
2023/03/08 03:25:29;;;;;;;24.83;4.22;;;11.60;99.90;;;10.95;100.00;98989.78;4155248;28;20030;-81
2023/03/08 03:27:30;;;;;;;18.40;3.53;;;11.60;99.90;;;10.92;100.00;98987.56;4154882;28;20469;-80
2023/03/08 03:29:31;;;;;;;13.77;2.30;;;11.70;99.90;;;11.10;100.00;98998.34;4154939;28;20113;-80
2023/03/08 03:31:33;;;;;;;17.65;2.97;;;11.70;99.90;;;11.06;100.00;98979.44;4153649;28;20045;-80
2023/03/08 03:33:34;;;;;;;19.83;3.83;;;11.80;99.90;;;11.07;100.00;98989.00;4145460;28;20125;-81
2023/03/08 03:35:37;;;;;;;20.85;4.10;;;11.80;99.90;;;11.00;100.00;98990.81;4150725;28;20515;-81
2023/03/08 03:37:38;;;;;;;21.38;3.85;;;11.80;99.90;;;11.01;100.00;98983.72;4146617;28;20050;-81
2023/03/08 03:39:39;;;;;;;20.67;3.20;;;11.70;99.90;;;10.93;100.00;98983.91;4155399;28;20385;-80
2023/03/08 03:41:40;;;;;;;24.02;3.78;;;11.70;99.90;;;11.15;100.00;98990.63;4137547;28;20057;-81
2023/03/08 03:43:41;;;;;;;17.30;3.88;;;11.70;99.90;;;11.03;100.00;98987.78;4153796;28;20062;-81
2023/03/08 03:45:42;;;;;;;27.83;4.65;;;11.80;99.90;;;11.03;100.00;98971.94;4153659;28;20389;-81
2023/03/08 03:47:43;;;;;;;18.65;3.15;;;11.80;99.90;;;11.07;100.00;98981.09;4148084;28;20041;-81
2023/03/08 03:49:44;;;;;;;24.15;3.80;;;11.80;99.90;;;11.04;100.00;98973.56;4145458;28;20425;-80
2023/03/08 03:51:45;;;;;;;22.80;3.90;;;11.80;99.90;;;10.99;100.00;98968.06;4169930;28;20025;-80
2023/03/08 03:53:47;;;;;;;22.13;4.50;;;11.80;99.90;;;11.07;100.00;98985.53;4153526;28;20021;-81
2023/03/08 03:55:48;;;;;;;18.63;3.55;;;11.80;99.90;;;11.06;100.00;98986.53;4154781;28;20028;-80
2023/03/08 03:57:49;;;;;;;23.23;4.97;;;11.80;99.90;;;11.09;100.00;98984.31;4153508;28;20032;-80
2023/03/08 03:59:50;;;;;;;23.25;4.82;;;11.80;99.90;;;11.23;100.00;98981.69;4169998;28;20036;-80
2023/03/08 04:01:51;;;;;;;20.92;3.63;;;11.80;99.90;;;11.19;100.00;98983.13;4154314;28;20018;-81
2023/03/08 04:03:54;;;;;;;14.40;2.83;;;11.80;99.90;;;11.19;100.00;98977.84;4154742;28;20034;-80
2023/03/08 04:06:15;;;;;;;24.90;3.13;;;11.90;99.90;;;11.04;100.00;98964.84;4153447;28;20026;-81
2023/03/08 04:08:16;;;;;;;17.58;3.05;;;11.80;99.90;;;11.12;100.00;98975.19;4154460;28;20466;-80
2023/03/08 04:10:17;;;;;;;17.35;3.83;;;11.80;99.90;;;11.07;100.00;98965.25;4154714;28;20030;-80
2023/03/08 04:12:18;;;;;;;12.00;2.75;;;11.80;99.90;;;11.07;100.00;98970.53;4154803;28;20026;-80
2023/03/08 04:14:19;;;;;;;16.40;3.03;;;11.80;99.90;;;11.06;100.00;98966.25;4153142;28;20042;-81
2023/03/08 04:16:22;;;;;;;14.85;3.17;;;11.80;99.90;;;11.22;100.00;98978.25;4152853;28;20514;-80
2023/03/08 04:18:23;;;;;;;18.75;4.20;;;11.80;99.90;;;11.06;100.00;98970.72;4141102;28;20029;-80
2023/03/08 04:20:24;;;;;;;15.18;3.60;;;11.80;99.90;;;11.08;100.00;98951.03;4154470;28;20030;-80
2023/03/08 04:22:25;;;;;;;12.20;2.22;;;11.80;99.90;;;11.07;100.00;98952.06;4153317;28;20029;-81
2023/03/08 04:24:26;;;;;;;13.77;2.55;;;11.70;99.90;;;10.81;100.00;98935.41;4169373;28;20038;-81
2023/03/08 04:26:27;;;;;;;16.15;2.85;;;11.70;99.90;;;10.91;100.00;98947.16;4153095;28;20524;-81
2023/03/08 04:28:28;;;;;;;11.63;2.10;;;11.70;99.90;;;10.82;100.00;98945.72;4127078;28;20121;-81
2023/03/08 04:30:29;;;;;;;17.25;2.63;;;11.60;99.90;;;10.79;100.00;98946.13;4153134;28;20030;-81
2023/03/08 04:32:31;;;;;;;14.93;2.08;;;11.60;99.90;;;10.86;100.00;98956.69;4168695;28;20112;-81
2023/03/08 04:34:32;;;;;;;15.30;2.90;;;11.60;99.90;;;10.95;100.00;98968.69;4153251;28;20033;-81
2023/03/08 04:36:33;;;;;;;17.45;3.80;;;11.60;99.90;;;11.00;100.00;98974.16;4169243;28;20030;-80
2023/03/08 04:38:35;;;;;;;15.05;3.80;;;11.60;99.90;;;11.11;100.00;98969.09;4154158;28;20436;-80
2023/03/08 04:41:00;;;;;;;18.85;3.35;;;11.70;99.90;;;11.07;100.00;98970.53;4153199;28;20037;-80
2023/03/08 04:42:57;;;;;;;21.20;4.03;;;11.70;99.90;;;11.12;100.00;98967.28;4154013;28;20487;-81
2023/03/08 04:44:58;;;;;;;21.80;4.20;;;11.80;99.90;;;11.24;100.00;98972.75;4152941;28;20033;-80
2023/03/08 04:46:59;;;;;;;22.98;4.18;;;11.80;99.90;;;11.23;100.00;98979.06;4153839;28;20014;-80
2023/03/08 04:49:00;;;;;;;22.17;4.07;;;11.90;99.90;;;11.33;100.00;98976.81;4152755;28;20029;-80
2023/03/08 04:51:04;;;;;;;29.13;4.95;;;12.00;99.90;;;11.38;100.00;98983.09;4168432;28;20056;-80
2023/03/08 04:53:07;;;;;;;27.83;4.45;;;12.00;99.90;;;11.45;100.00;98967.25;4152720;28;20022;-80
2023/03/08 04:55:08;;;;;;;21.23;4.57;;;12.10;99.90;;;11.27;100.00;98969.69;4154020;28;20061;-80
2023/03/08 04:57:09;;;;;;;22.83;3.50;;;12.00;99.90;;;11.25;100.00;98966.47;4152470;28;20033;-81
2023/03/08 04:59:09;;;;;;;21.27;4.60;;;12.10;99.90;;;11.32;100.00;98985.75;4152570;28;20528;-81
2023/03/08 05:01:21;;;;;;;18.80;4.25;;;12.00;99.90;;;11.40;100.00;98991.66;4153496;28;20026;-80
2023/03/08 05:03:22;;;;;;;24.33;3.70;;;12.00;99.90;;;11.40;100.00;98996.09;4152550;28;20120;-80
2023/03/08 05:05:23;;;;;;;18.02;2.78;;;12.00;99.90;;;11.33;100.00;98990.81;4136181;28;20120;-80
2023/03/08 05:07:24;;;;;;;17.75;3.58;;;12.00;99.90;;;11.27;100.00;98990.81;4152515;28;20040;-80
2023/03/08 05:09:25;;;;;;;27.42;3.72;;;12.00;99.90;;;11.17;100.00;98979.88;4152460;28;20482;-80
2023/03/08 05:11:28;;;;;;;16.08;3.65;;;12.00;99.90;;;11.17;100.00;98987.78;4152333;28;20399;-80
2023/03/08 05:13:32;;;;;;;18.83;3.15;;;11.90;99.90;;;11.14;100.00;98985.56;4153536;28;20042;-80
2023/03/08 05:15:34;;;;;;;15.80;3.22;;;11.90;99.90;;;11.20;100.00;98995.31;4152410;28;20450;-81
2023/03/08 05:17:35;;;;;;;22.40;3.78;;;11.90;99.90;;;11.22;100.00;98988.00;4152889;28;20034;-81
2023/03/08 05:19:36;;;;;;;16.45;3.13;;;11.90;99.90;;;11.17;100.00;98991.22;4153305;28;20033;-81
2023/03/08 05:21:37;;;;;;;17.60;2.58;;;11.90;99.90;;;11.20;100.00;98974.97;4153566;28;20493;-80
2023/03/08 05:23:38;;;;;;;18.65;3.17;;;11.90;99.90;;;11.14;100.00;98988.19;4153467;28;20048;-80
2023/03/08 05:25:42;;;;;;;15.88;3.97;;;11.80;99.90;;;11.23;100.00;98994.91;4153403;28;20118;-81
2023/03/08 05:27:43;;;;;;;12.40;3.13;;;11.80;99.90;;;11.20;100.00;98997.94;4151958;28;20084;-80
2023/03/08 05:29:44;;;;;;;22.30;3.50;;;11.80;99.90;;;11.17;100.00;98985.16;4135964;28;20030;-81
2023/03/08 05:31:45;;;;;;;16.95;3.50;;;11.90;99.90;;;11.06;100.00;98983.91;4148904;28;20108;-81
2023/03/08 05:33:50;;;;;;;19.45;2.60;;;11.80;99.90;;;11.03;100.00;98987.78;4145920;28;20026;-80
2023/03/08 05:35:54;;;;;;;17.02;2.85;;;11.80;99.90;;;11.05;100.00;98991.00;4151887;28;20052;-80
2023/03/08 05:37:55;;;;;;;;;;;11.80;99.90;;;11.05;100.00;98995.50;4145873;28;20030;-81
2023/03/08 05:39:55;;;;;;;9.23;1.88;;;11.80;99.90;;;11.07;100.00;98996.09;4152024;28;20356;-80
2023/03/08 05:41:57;;;;;;;14.50;2.97;;;11.70;99.90;;;10.98;100.00;98984.94;4153111;28;20084;-81
2023/03/08 05:44:00;;;;;;;8.43;1.10;;;11.70;99.90;;;10.98;100.00;98992.03;4153185;28;20034;-81
2023/03/08 05:46:09;;;;;;;8.73;1.60;;;11.70;99.90;;;10.90;100.00;98989.59;4153015;28;20516;-81
2023/03/08 05:48:10;;;;;;;5.82;1.83;;;11.60;99.90;;;10.96;100.00;99004.63;4147353;28;20073;-81
2023/03/08 05:50:11;;;;;;;6.45;1.15;;;11.60;99.90;;;10.96;100.00;99000.13;4152009;28;20080;-81
2023/03/08 05:52:12;;;;;;;7.22;1.05;;;11.70;99.90;;;10.90;100.00;99000.94;4166731;28;20029;-82
2023/03/08 05:54:13;;;;;;;7.45;1.17;;;11.60;99.90;;;10.92;100.00;99009.47;4153118;28;20061;-81
2023/03/08 05:56:21;;;;;;;8.18;1.08;;;11.60;99.90;;;10.93;100.00;99005.00;4152920;28;20473;-81
2023/03/08 05:58:21;;;;;;;5.63;0.93;;;11.60;99.90;;;11.06;100.00;99013.75;4151699;28;20081;-81
2023/03/08 06:00:23;;;;;;;5.57;1.02;;;11.60;99.90;;;10.92;100.00;99008.66;4151631;28;20033;-81
2023/03/08 06:02:24;;;;;;;4.95;1.50;;;11.60;99.90;;;10.81;100.00;99002.13;4151610;28;20042;-81
2023/03/08 06:04:25;;;;;;;9.43;1.38;;;11.60;99.90;;;10.88;100.00;99017.97;4151605;28;20117;-81
2023/03/08 06:06:26;;;;;;;9.35;2.55;;;11.60;99.90;;;10.82;100.00;99010.84;4167955;28;20037;-81
2023/03/08 06:08:27;;;;;;;12.50;2.85;;;11.60;99.90;;;11.03;100.00;99015.97;4138914;28;20107;-81
2023/03/08 06:10:28;;;;;;;10.32;2.67;;;11.60;99.90;;;10.96;100.00;99015.97;4151530;28;20501;-81
2023/03/08 06:12:29;;;;;;;14.77;2.53;;;11.60;99.90;;;11.01;100.00;99013.56;4143112;28;20133;-80
2023/03/08 06:14:30;;;;;;;16.05;3.22;;;11.60;99.90;;;10.95;100.00;99006.44;4148540;28;20042;-80
2023/03/08 06:16:31;;;;;;;19.15;2.90;;;11.60;99.90;;;10.87;100.00;98998.69;4152062;28;20066;-79
2023/03/08 06:18:34;;;;;;;23.75;3.53;;;11.60;99.90;;;10.93;100.00;99010.28;4134962;28;20383;-79
2023/03/08 06:20:35;;;;;;;28.17;3.78;;;11.60;99.90;;;10.97;100.00;99000.94;4151489;28;20433;-78
2023/03/08 06:22:36;;;;;;;24.00;3.35;;;11.60;99.90;;;10.88;100.00;98992.41;4167572;28;20029;-79
2023/03/08 06:24:37;;;;;;;25.33;4.30;;;11.50;99.90;;;10.80;100.00;98997.88;4152509;28;20519;-79
2023/03/08 06:26:38;;;;;;;20.77;3.88;;;11.50;99.90;;;10.76;100.00;98998.47;4151535;28;20121;-79
2023/03/08 06:28:41;;;;;;;26.67;4.07;;;11.50;99.90;;;10.74;100.00;99001.31;4143475;28;20041;-79
2023/03/08 06:30:42;;;;;;;26.65;4.55;;;11.50;99.90;;;10.81;100.00;99007.41;4151872;28;20030;-79
2023/03/08 06:32:43;;;;;;;31.35;6.28;;;11.40;99.90;;;10.69;100.00;98990.56;4150687;28;20041;-79
2023/03/08 06:34:45;;;;;;;27.27;4.05;;;11.40;99.90;;;10.72;100.00;98998.03;4167670;28;20501;-79
2023/03/08 06:36:46;;;;;;;22.63;5.72;;;11.40;99.90;;;10.67;100.00;98997.84;4150978;28;20034;-79
2023/03/08 06:38:48;;;;;;;22.98;4.88;;;11.40;99.90;;;10.54;100.00;99000.47;4151104;28;20025;-79
2023/03/08 06:40:49;;;;;;;22.23;4.00;;;11.30;99.90;;;10.54;100.00;99005.72;4167427;28;20034;-79
2023/03/08 06:42:50;;;;;;;26.77;4.10;;;11.30;99.90;;;10.54;100.00;99006.50;4151379;28;20025;-79
2023/03/08 06:44:51;;;;;;;20.27;4.85;;;11.30;99.90;;;10.54;100.00;99011.00;4152615;28;20022;-79
2023/03/08 06:46:51;;;;;;;21.42;3.60;;;11.20;99.90;;;10.58;100.00;99009.56;4152418;28;20101;-79
2023/03/08 06:48:53;;;;;;;22.02;4.60;;;11.20;99.90;;;10.54;100.00;99016.28;4151058;28;20030;-79
2023/03/08 06:50:54;;;;;;;21.88;3.83;;;11.30;99.90;;;10.56;100.00;99014.25;4152447;28;20038;-79
2023/03/08 06:52:55;;;;;;;24.13;5.05;;;11.30;99.90;;;10.59;100.00;99011.22;4151104;28;20033;-79
2023/03/08 06:54:55;;;;;;;21.27;4.75;;;11.30;99.90;;;10.64;100.00;99021.16;4151264;28;20129;-78
2023/03/08 06:56:56;;;;;;;19.33;3.70;;;11.30;99.90;;;10.67;100.00;99029.47;4151715;28;20038;-78
2023/03/08 06:58:57;;;;;;;18.92;4.55;;;11.30;99.90;;;10.63;100.00;99036.19;4151247;28;20022;-78
2023/03/08 07:00:58;;;;;;;18.40;4.28;;;11.30;99.90;;;10.65;100.00;99028.88;4152041;28;20076;-79
2023/03/08 07:03:00;;;;;;;20.65;3.42;;;11.30;99.90;;;10.65;100.00;99031.50;4152224;28;20052;-79
2023/03/08 07:05:00;;;;;;;25.50;3.97;;;11.30;99.90;;;10.61;100.00;99030.28;4151214;28;20063;-79
2023/03/08 07:07:01;;;;;;;16.85;3.42;;;11.30;99.90;;;10.61;100.00;99022.38;4152123;28;20482;-79
2023/03/08 07:09:03;;;;;;;20.77;3.08;;;11.30;99.90;;;10.64;100.00;99023.78;4151167;28;20080;-79
2023/03/08 07:11:05;;;;;;;19.98;3.35;;;11.30;99.90;;;10.68;100.00;99027.66;4167344;28;20022;-79
2023/03/08 07:13:06;;;;;;;18.95;3.40;;;11.40;99.90;;;10.65;100.00;99023.59;4152028;28;20058;-78
2023/03/08 07:15:13;;;;;;;17.27;3.13;;;11.40;99.90;;;10.62;100.00;99024.00;4150881;28;20092;-79
2023/03/08 07:17:15;;;;;;;19.75;4.13;;;11.40;99.90;;;10.68;100.00;99031.13;4166778;28;20030;-79
2023/03/08 07:19:16;;;;;;;25.58;3.85;;;11.40;99.90;;;10.72;100.00;99034.19;4152163;28;20037;-79
2023/03/08 07:21:17;;;;;;;22.02;5.85;;;11.40;99.90;;;10.87;100.00;99038.25;4150946;28;20026;-78
2023/03/08 07:23:17;;;;;;;30.23;5.18;;;11.50;99.90;;;10.88;100.00;99037.25;4150722;28;20030;-79
2023/03/08 07:25:20;;;;;;;24.98;5.07;;;11.50;99.90;;;10.79;100.00;99035.00;4142217;28;20548;-79
2023/03/08 07:27:21;;;;;;;24.77;4.53;;;11.50;99.90;;;10.72;100.00;99024.41;4152017;28;20039;-79
2023/03/08 07:29:21;;;;;;;27.40;5.05;;;11.50;99.90;;;10.78;100.00;99036.03;4151982;28;20029;-78
2023/03/08 07:31:22;;;;;;;32.78;6.15;;;11.50;99.90;;;10.76;100.00;99041.47;4150262;28;20029;-79
2023/03/08 07:33:23;;;;;;;30.23;5.03;;;11.50;99.90;;;10.71;100.00;99022.81;4152255;28;20026;-79
2023/03/08 07:35:24;;;;;;;30.60;5.78;;;11.50;99.90;;;10.81;100.00;99040.91;4151994;28;20033;-79
2023/03/08 07:37:25;;;;;;;28.00;5.10;;;11.50;99.90;;;10.82;100.00;99042.50;4151993;28;20022;-79
2023/03/08 07:39:26;;;;;;;26.10;4.07;;;11.50;99.90;;;10.84;100.00;99049.22;4150476;28;20025;-80
2023/03/08 07:41:29;;;;;;;27.92;4.80;;;11.50;99.90;;;10.87;100.00;99038.25;4168168;28;20025;-79
2023/03/08 07:43:30;;;;;;;14.32;3.58;;;11.60;99.90;;;10.88;100.00;99045.16;4170098;28;20022;-79
2023/03/08 07:45:31;;;;;;;17.08;3.25;;;11.60;99.90;;;10.99;100.00;99047.22;4154955;28;20026;-79
2023/03/08 07:47:32;;;;;;;12.70;3.08;;;11.60;99.90;;;10.92;100.00;99035.03;4144320;28;20039;-79
2023/03/08 07:49:33;;;;;;;12.18;2.45;;;11.60;99.90;;;10.89;100.00;99038.91;4170364;28;20048;-79
2023/03/08 07:51:34;;;;;;;16.55;3.45;;;11.60;99.90;;;10.92;100.00;99043.78;4153627;28;20057;-79
2023/03/08 07:53:36;;;;;;;17.13;3.13;;;11.70;99.90;;;10.97;100.00;99032.59;4170114;28;20025;-80
2023/03/08 07:55:37;;;;;;;25.35;3.30;;;11.70;99.90;;;11.00;100.00;99051.50;4169873;28;20101;-80
2023/03/08 07:57:38;;;;;;;22.42;4.75;;;11.70;99.90;;;11.02;100.00;99051.31;4154627;28;20018;-80
2023/03/08 07:59:40;;;;;;;21.70;3.63;;;11.70;99.90;;;11.03;100.00;99037.06;4154769;28;20092;-80
2023/03/08 08:01:41;;;;;;;18.83;5.13;;;11.70;99.90;;;11.00;100.00;99046.22;4154471;28;20077;-80
2023/03/08 08:03:42;;;;;;;22.73;4.15;;;11.70;99.90;;;11.05;100.00;99040.34;4136946;28;20033;-80
2023/03/08 08:05:43;;;;;;;23.05;3.97;;;11.70;99.90;;;11.06;100.00;99040.13;4124618;28;20030;-79
2023/03/08 08:07:46;;;;;;;22.83;4.05;;;11.80;99.90;;;11.11;100.00;99037.69;4153055;28;20033;-80
2023/03/08 08:09:47;;;;;;;29.52;4.85;;;11.80;99.90;;;11.07;100.00;99023.31;4146547;28;20105;-80
2023/03/08 08:11:48;;;;;;;29.48;4.32;;;11.80;99.90;;;11.16;100.00;99031.84;4152798;28;20061;-80
2023/03/08 08:13:49;;;;;;;23.55;4.40;;;11.80;99.90;;;11.06;100.00;99011.13;4154340;28;20069;-80
2023/03/08 08:16:01;;;;;;;26.48;4.78;;;11.80;99.90;;;11.09;100.00;99020.44;4169592;28;20029;-80
2023/03/08 08:18:03;;;;;;;25.25;4.57;;;11.80;99.90;;;11.04;100.00;99018.44;4151795;28;20092;-80
2023/03/08 08:20:06;;;;;;;28.63;3.97;;;11.80;99.90;;;11.10;100.00;99027.38;4140664;28;20053;-80
2023/03/08 08:22:07;;;;;;;25.77;4.57;;;11.80;99.90;;;11.09;100.00;99021.25;4153086;28;20045;-80
2023/03/08 08:24:08;;;;;;;26.63;3.95;;;11.80;99.90;;;11.10;100.00;99011.53;4169534;28;20017;-80
2023/03/08 08:26:16;;;;;;;19.92;3.97;;;11.90;99.90;;;11.11;100.00;99016.59;4154225;28;20034;-80